Time;durP1;ratioP1;P1;durP2;ratioP2;P2;SDS_P1;SDS_P2;PMS_P1;PMS_P2;Temp;Humidity;BMP_temperature;BMP_pressure;BME280_temperature;BME280_humidity;BME280_pressure;Samples;Min_cycle;Max_cycle;Signal;HPM_P1;HPM_P2
2022/06/06 00:00:47;;;;;;;10.30;3.75;;;;;;;22.45;53.18;99062.28;5033538;28;20033;-72
2022/06/06 00:03:15;;;;;;;5.45;2.83;;;;;;;22.14;54.35;99059.38;5015702;28;20049;-72
2022/06/06 00:05:46;;;;;;;4.97;3.47;;;;;;;22.04;54.62;99061.13;5012232;28;20112;-72
2022/06/06 00:08:12;;;;;;;8.77;3.72;;;;;;;22.22;53.83;99055.25;5021864;28;20037;-71
2022/06/06 00:10:42;;;;;;;9.90;5.05;;;;;;;22.40;53.59;99045.66;5033114;28;20029;-72
2022/06/06 00:13:09;;;;;;;13.10;6.45;;;;;;;22.51;53.21;99040.66;5031968;28;20396;-72
2022/06/06 00:15:35;;;;;;;20.23;9.02;;;;;;;22.60;52.90;99040.13;5032929;28;20037;-72
2022/06/06 00:18:02;;;;;;;17.27;9.60;;;;;;;22.66;52.63;99046.16;5033033;28;20025;-71
2022/06/06 00:20:28;;;;;;;21.45;10.15;;;;;;;22.92;52.03;99036.00;5031383;28;20037;-72
2022/06/06 00:22:53;;;;;;;23.63;12.48;;;;;;;23.16;51.33;99036.03;5031872;28;20082;-72
2022/06/06 00:25:19;;;;;;;25.92;13.35;;;;;;;23.13;51.00;99043.41;5031674;28;20467;-71
2022/06/06 00:27:44;;;;;;;26.83;11.00;;;;;;;23.03;51.14;99047.22;5032899;28;20029;-72
2022/06/06 00:30:11;;;;;;;26.63;10.27;;;;;;;23.10;50.86;99049.16;5031981;28;20083;-72
2022/06/06 00:35:20;;;;;;;17.27;6.88;;;;;;;22.66;51.97;99035.56;5032705;28;20124;-71
2022/06/06 00:37:47;;;;;;;8.48;5.00;;;;;;;22.28;53.12;99027.09;5030558;28;20045;-71
2022/06/06 00:40:15;;;;;;;7.90;4.32;;;;;;;21.90;54.61;99032.81;5032648;28;20032;-71
2022/06/06 00:42:42;;;;;;;5.60;4.03;;;;;;;21.43;56.00;99017.78;5032816;28;20075;-72
2022/06/06 00:45:20;;;;;;;7.03;3.47;;;;;;;21.35;55.85;99016.22;5031013;28;20055;-72
2022/06/06 00:48:02;;;;;;;6.97;4.18;;;;;;;21.29;56.16;99007.34;5031218;28;20029;-71
2022/06/06 00:50:38;;;;;;;8.07;3.95;;;;;;;21.44;55.52;98993.81;5030366;28;20033;-72
2022/06/06 00:53:07;;;;;;;5.15;3.50;;;;;;;21.65;54.84;98980.59;5029937;28;20064;-72
2022/06/06 00:55:38;;;;;;;7.40;3.20;;;;;;;21.96;53.81;98988.41;5030267;28;20029;-72
2022/06/06 00:58:12;;;;;;;13.48;3.97;;;;;;;22.44;52.46;98975.19;5032039;28;20026;-72
2022/06/06 01:00:39;;;;;;;5.35;3.40;;;;;;;22.25;52.94;98990.91;5032132;28;20124;-71
2022/06/06 01:03:07;;;;;;;6.47;4.03;;;;;;;22.04;53.67;99003.38;5030922;28;20472;-72
2022/06/06 01:05:34;;;;;;;10.63;4.45;;;;;;;21.71;54.62;99004.53;5031140;28;20033;-71
2022/06/06 01:08:00;;;;;;;6.75;3.88;;;;;;;21.53;55.22;99001.06;5029459;28;20599;-72
2022/06/06 01:10:26;;;;;;;13.80;3.92;;;;;;;21.72;54.81;98993.97;5010937;28;20037;-72
2022/06/06 01:12:55;;;;;;;11.32;4.13;;;;;;;21.75;54.71;98998.81;5029577;28;20404;-72
2022/06/06 01:15:24;;;;;;;7.35;3.72;;;;;;;21.37;55.80;98995.91;5029211;28;20132;-72
2022/06/06 01:18:05;;;;;;;12.20;4.53;;;;;;;20.86;57.78;98991.44;5029364;28;20064;-71
2022/06/06 01:20:49;;;;;;;7.38;3.95;;;;;;;20.87;57.92;98984.53;5029858;28;20395;-72
2022/06/06 01:23:54;;;;;;;16.33;4.60;;;;;;;20.96;57.87;98967.03;5031048;28;20029;-71
2022/06/06 01:26:32;;;;;;;21.35;4.82;;;;;;;20.79;58.49;98963.06;5029433;28;20029;-72
2022/06/06 01:29:04;;;;;;;11.70;4.70;;;;;;;20.75;58.46;98965.09;5031093;28;20072;-72
2022/06/06 01:31:44;;;;;;;17.98;4.43;;;;;;;20.70;58.72;98960.69;5029812;28;20494;-71
2022/06/06 01:34:13;;;;;;;10.80;5.07;;;;;;;20.40;59.68;98955.63;5030750;28;20091;-71
2022/06/06 01:36:40;;;;;;;14.48;4.60;;;;;;;20.16;60.46;98961.03;5030597;28;20507;-72
2022/06/06 01:39:09;;;;;;;7.75;4.40;;;;;;;20.19;60.64;98960.19;5030892;28;20553;-72
2022/06/06 01:41:50;;;;;;;9.32;4.85;;;;;;;20.17;60.47;98962.63;5030995;28;20495;-71
2022/06/06 01:44:28;;;;;;;7.18;4.43;;;;;;;19.91;61.36;98962.72;5029655;28;20022;-72
2022/06/06 01:46:56;;;;;;;8.25;4.78;;;;;;;19.84;61.76;98956.25;5011983;28;20193;-71
2022/06/06 01:49:24;;;;;;;8.20;3.78;;;;;;;19.88;61.78;98957.03;5026034;28;20531;-71
2022/06/06 01:52:06;;;;;;;10.05;4.30;;;;;;;19.85;61.80;98958.69;5031522;28;20105;-71
2022/06/06 01:54:31;;;;;;;6.72;4.03;;;;;;;19.77;62.44;98963.56;5031557;28;20032;-71
2022/06/06 01:57:00;;;;;;;5.47;4.38;;;;;;;19.71;62.98;98965.22;5031435;28;20025;-72
2022/06/06 01:59:26;;;;;;;10.82;4.60;;;;;;;19.55;63.54;98957.16;5029606;28;20106;-71
2022/06/06 02:01:52;;;;;;;8.00;4.65;;;;;;;19.76;62.88;98949.81;5029539;28;20031;-71
2022/06/06 02:04:18;;;;;;;7.15;4.60;;;;;;;19.83;62.67;98944.09;5031522;28;20388;-71
2022/06/06 02:06:44;;;;;;;7.70;4.55;;;;;;;19.73;62.57;98942.91;5031318;28;20075;-71
2022/06/06 02:09:10;;;;;;;7.60;4.93;;;;;;;19.72;62.97;98932.78;5023531;28;20432;-72
2022/06/06 02:11:37;;;;;;;10.43;4.93;;;;;;;20.03;62.01;98927.44;5030730;28;20132;-72
2022/06/06 02:14:04;;;;;;;9.18;4.63;;;;;;;20.21;60.91;98906.63;5029453;28;20033;-71
2022/06/06 02:16:30;;;;;;;15.65;5.45;;;;;;;20.39;60.57;98917.88;5031324;28;20408;-71
2022/06/06 02:18:55;;;;;;;7.00;4.35;;;;;;;20.72;59.28;98906.28;5029979;28;20030;-71
2022/06/06 02:21:21;;;;;;;9.85;4.18;;;;;;;21.04;57.94;98903.19;5029835;28;20103;-71
2022/06/06 02:23:48;;;;;;;11.70;5.15;;;;;;;21.45;56.85;98907.25;5027745;28;20033;-71
2022/06/06 02:26:15;;;;;;;10.32;4.38;;;;;;;21.72;55.88;98902.91;5029676;28;20049;-71
2022/06/06 02:28:41;;;;;;;8.45;3.97;;;;;;;21.82;55.55;98912.53;5029900;28;20021;-72
2022/06/06 02:31:07;;;;;;;4.50;3.70;;;;;;;21.77;55.79;98918.72;5031146;28;20257;-71
2022/06/06 02:33:33;;;;;;;12.20;4.78;;;;;;;21.81;55.56;98925.97;5030497;28;20476;-72
2022/06/06 02:36:00;;;;;;;8.70;3.92;;;;;;;21.88;55.42;98917.31;5030833;28;20049;-72
2022/06/06 02:38:27;;;;;;;15.75;5.15;;;;;;;21.70;55.96;98925.28;5029979;28;20472;-72
2022/06/06 02:40:53;;;;;;;11.88;4.55;;;;;;;21.70;55.98;98931.78;5030874;28;20029;-72
2022/06/06 02:43:21;;;;;;;9.57;4.90;;;;;;;21.57;56.15;98930.69;5029180;28;20128;-72
2022/06/06 02:45:48;;;;;;;13.38;5.53;;;;;;;20.95;57.41;98934.16;5034749;28;20025;-71
2022/06/06 02:48:14;;;;;;;26.95;7.47;;;;;;;20.75;58.13;98925.31;5034829;28;20025;-71
2022/06/06 02:50:40;;;;;;;10.18;6.05;;;;;;;20.74;58.34;98926.56;5034600;28;20025;-71
2022/06/06 02:53:05;;;;;;;13.63;6.97;;;;;;;20.85;57.55;98918.00;5025854;28;20041;-72
2022/06/06 02:55:32;;;;;;;12.68;7.30;;;;;;;20.99;56.78;98925.56;5030236;28;20039;-71
2022/06/06 02:57:59;;;;;;;12.32;6.35;;;;;;;21.04;56.06;98939.34;5034620;28;20104;-71
2022/06/06 03:00:28;;;;;;;16.58;6.55;;;;;;;21.12;56.14;98957.13;5034477;28;20076;-71
2022/06/06 03:02:54;;;;;;;17.00;6.70;;;;;;;21.03;56.21;98971.84;5033577;28;20029;-71
2022/06/06 03:05:20;;;;;;;14.07;5.63;;;;;;;20.95;56.53;98991.00;5034101;28;20040;-70
2022/06/06 03:08:06;;;;;;;9.85;5.18;;;;;;;20.74;57.75;99043.88;5031623;28;20436;-70
2022/06/06 03:11:19;;;;;;;9.00;4.70;;;;;;;20.51;58.77;99089.03;5032193;28;20029;-71
2022/06/06 03:13:59;;;;;;;5.88;4.13;;;;;;;20.61;58.32;99094.66;5025895;28;20095;-71
2022/06/06 03:22:58;;;;;;;25.98;7.80;;;;;;;18.80;77.09;99176.94;5032348;28;20463;-71
2022/06/06 03:25:31;;;;;;;22.27;7.10;;;;;;;18.90;81.72;99196.00;5029385;28;20052;-71
2022/06/06 03:28:15;;;;;;;25.20;7.60;;;;;;;19.14;81.60;99209.91;5032859;28;20036;-70
2022/06/06 03:30:46;;;;;;;15.85;7.10;;;;;;;19.38;80.35;99230.22;5029632;28;20148;-69
2022/06/06 03:33:41;;;;;;;14.02;6.63;;;;;;;19.48;81.89;99241.56;5031975;28;20026;-69
2022/06/06 03:36:31;;;;;;;14.32;6.75;;;;;;;19.47;79.89;99251.28;5029098;28;20084;-71
2022/06/06 03:39:06;;;;;;;15.03;6.50;;;;;;;19.58;79.49;99265.50;5029312;28;20029;-71
2022/06/06 03:41:53;;;;;;;13.45;5.93;;;;;;;19.67;80.04;99290.66;5032630;28;20104;-71
2022/06/06 03:44:45;;;;;;;14.48;6.05;;;;;;;19.69;78.88;99295.91;5032564;28;20478;-71
2022/06/06 03:47:22;;;;;;;8.68;5.85;;;;;;;19.71;80.10;99311.31;5032040;28;20096;-71
2022/06/06 03:50:13;;;;;;;9.15;5.53;;;;;;;19.56;80.90;99332.38;5031008;28;20564;-72
2022/06/06 03:52:44;;;;;;;;;;;;;;;19.53;82.78;99338.81;5033145;28;20597;-72
2022/06/06 03:55:34;;;;;;;14.57;6.65;;;;;;;19.38;84.25;99350.09;5032737;28;19916;-71
2022/06/06 03:58:03;;;;;;;17.08;6.68;;;;;;;19.36;85.64;99358.19;5033411;28;20034;-71
2022/06/06 04:00:28;;;;;;;16.85;7.57;;;;;;;19.33;86.80;99347.66;5032740;28;20041;-71
2022/06/06 04:02:56;;;;;;;11.88;7.80;;;;;;;19.39;87.31;99362.28;5020473;28;20041;-71
2022/06/06 04:05:24;;;;;;;18.85;8.50;;;;;;;19.57;86.68;99357.47;5020788;28;20030;-72
2022/06/06 04:07:50;;;;;;;15.50;7.90;;;;;;;19.94;85.37;99351.94;5032121;28;20029;-72
2022/06/06 04:10:17;;;;;;;16.40;7.72;;;;;;;20.22;84.60;99356.06;5033331;28;20029;-72
2022/06/06 04:13:24;;;;;;;11.85;6.45;;;;;;;20.42;82.89;99345.91;5033159;28;20112;-72
2022/06/06 04:16:13;;;;;;;13.18;7.32;;;;;;;20.53;81.96;99351.59;5026327;28;20045;-72
2022/06/06 04:18:59;;;;;;;18.75;7.53;;;;;;;20.60;81.38;99339.41;5030689;28;20052;-72
2022/06/06 04:21:37;;;;;;;17.23;6.95;;;;;;;20.53;82.27;99354.44;5030808;28;20037;-72
2022/06/06 04:24:20;;;;;;;20.25;7.90;;;;;;;20.39;82.90;99348.75;5032993;28;20026;-72
2022/06/06 04:27:03;;;;;;;23.77;7.90;;;;;;;20.37;83.37;99357.69;5031797;28;20025;-73
2022/06/06 04:30:01;;;;;;;19.70;7.20;;;;;;;20.43;82.01;99363.78;5031121;28;20103;-72
2022/06/06 04:32:44;;;;;;;22.05;8.52;;;;;;;20.55;82.93;99354.84;5032673;28;20013;-73
2022/06/06 04:35:28;;;;;;;21.48;7.90;;;;;;;20.70;81.44;99318.72;5030954;28;20045;-73
2022/06/06 04:38:07;;;;;;;17.67;7.65;;;;;;;20.60;81.28;99286.25;5030518;28;20025;-72
2022/06/06 04:41:14;;;;;;;15.70;6.43;;;;;;;20.36;83.04;99282.22;5032884;28;20038;-72
2022/06/06 04:43:53;;;;;;;21.67;7.07;;;;;;;20.30;84.22;99261.13;5030903;28;20396;-72
2022/06/06 04:46:47;;;;;;;18.23;7.40;;;;;;;20.28;83.13;99238.81;5032515;28;20532;-73
2022/06/06 04:49:13;;;;;;;14.98;7.45;;;;;;;20.11;83.86;99217.75;5031778;28;20029;-72
2022/06/06 04:51:42;;;;;;;17.25;6.80;;;;;;;20.10;83.76;99201.09;5031512;28;20025;-72
2022/06/06 04:54:13;;;;;;;15.02;6.88;;;;;;;20.05;83.20;99188.13;5031508;28;20040;-73
2022/06/06 04:56:39;;;;;;;13.93;7.10;;;;;;;19.89;84.08;99151.63;5032174;28;20021;-73
2022/06/06 04:59:09;;;;;;;14.10;6.35;;;;;;;19.89;84.59;99089.19;5030918;28;20398;-73
2022/06/06 05:01:36;;;;;;;19.48;7.45;;;;;;;19.70;85.39;99098.94;5032016;28;20409;-72
2022/06/06 05:04:01;;;;;;;13.93;7.00;;;;;;;19.69;86.58;99159.75;5030032;28;20021;-72
2022/06/06 05:06:29;;;;;;;10.20;7.25;;;;;;;19.36;89.43;99188.06;5027401;28;20020;-72
2022/06/06 05:09:26;;;;;;;14.43;7.45;;;;;;;19.54;89.10;99137.03;5027512;28;20030;-73
2022/06/06 05:12:13;;;;;;;21.63;8.35;;;;;;;19.60;88.33;99152.44;5027253;28;20029;-72
2022/06/06 05:15:12;;;;;;;12.23;7.40;;;;;;;19.34;89.23;99162.94;5007669;28;20080;-73
2022/06/06 05:17:46;;;;;;;15.00;6.68;;;;;;;19.83;87.18;99164.59;5019574;28;20033;-72
2022/06/06 05:20:38;;;;;;;15.20;7.38;;;;;;;20.08;86.38;99166.66;5026291;28;20177;-73
2022/06/06 05:23:19;;;;;;;13.85;6.55;;;;;;;20.28;83.43;99155.66;5032384;28;20564;-74
2022/06/06 05:26:13;;;;;;;15.65;6.00;;;;;;;20.41;82.49;99158.88;5015836;28;20032;-74
2022/06/06 05:28:52;;;;;;;12.20;5.00;;;;;;;20.49;80.24;99149.09;5025956;28;20029;-71
2022/06/06 05:31:32;;;;;;;21.25;6.22;;;;;;;20.55;79.55;99136.09;5027352;28;20033;-71
2022/06/06 05:34:07;;;;;;;15.18;5.72;;;;;;;20.70;78.74;99131.19;5027820;28;20029;-71
2022/06/06 05:37:04;;;;;;;13.98;5.22;;;;;;;20.77;78.30;99136.81;5026801;28;20045;-72
2022/06/06 05:39:57;;;;;;;17.15;5.57;;;;;;;20.90;79.83;99133.53;5026925;28;20083;-71
2022/06/06 05:43:10;;;;;;;12.32;4.60;;;;;;;20.89;82.82;99112.84;5020062;28;20032;-69
2022/06/06 05:45:44;;;;;;;9.52;4.45;;;;;;;21.00;83.70;99109.94;5018411;28;20055;-70
2022/06/06 05:48:26;;;;;;;13.23;3.92;;;;;;;21.20;79.72;99112.25;5028808;28;20539;-70
2022/06/06 05:51:45;;;;;;;12.13;4.00;;;;;;;21.14;81.03;99111.06;5028547;28;20040;-70
2022/06/06 05:54:38;;;;;;;9.80;3.95;;;;;;;21.16;79.77;99112.28;4929733;29;20043;-73
2022/06/06 05:57:39;;;;;;;6.57;3.13;;;;;;;21.28;76.70;99110.16;4940992;29;20040;-71
2022/06/06 06:00:16;;;;;;;5.22;3.47;;;;;;;21.54;79.28;99107.94;5024402;28;20037;-73
2022/06/06 06:03:13;;;;;;;12.25;5.13;;;;;;;21.52;76.81;99105.50;5012306;28;20040;-71
2022/06/06 06:05:55;;;;;;;10.07;4.38;;;;;;;21.45;79.50;99100.66;5021969;28;20069;-71
2022/06/06 06:08:35;;;;;;;6.53;4.70;;;;;;;21.46;81.87;99107.97;5027602;28;20109;-71
2022/06/06 06:11:32;;;;;;;7.70;5.55;;;;;;;21.34;81.41;99119.06;5027296;28;20037;-71
2022/06/06 06:14:23;;;;;;;17.95;6.55;;;;;;;21.09;80.56;99125.72;5026480;28;20590;-70
2022/06/06 06:16:58;;;;;;;18.67;7.57;;;;;;;20.89;82.49;99127.06;5023426;28;20037;-70
2022/06/06 06:19:31;;;;;;;14.65;7.80;;;;;;;20.86;84.94;99121.38;5024546;28;20037;-70
2022/06/06 06:21:59;;;;;;;16.52;7.03;;;;;;;20.93;84.69;99121.31;5031824;28;20033;-70
2022/06/06 06:24:31;;;;;;;14.55;7.18;;;;;;;20.95;85.70;99123.75;5029075;28;20064;-70
2022/06/06 06:26:57;;;;;;;19.92;9.65;;;;;;;21.01;86.96;99128.59;5031948;28;20025;-70
2022/06/06 06:29:24;;;;;;;15.40;8.20;;;;;;;21.15;86.34;99122.03;5021004;28;20413;-70
2022/06/06 06:32:17;;;;;;;15.15;7.93;;;;;;;21.23;83.21;99122.78;5028435;28;20029;-70
2022/06/06 06:35:22;;;;;;;14.55;7.40;;;;;;;21.30;82.89;99127.63;5014415;28;20041;-72
2022/06/06 06:38:14;;;;;;;8.50;5.78;;;;;;;21.15;81.64;99127.72;5012836;28;20114;-71
2022/06/06 06:41:10;;;;;;;13.40;6.55;;;;;;;21.28;80.57;99124.38;5023682;28;20421;-71
2022/06/06 06:43:41;;;;;;;11.38;6.70;;;;;;;21.27;81.76;99139.81;5016731;28;20033;-72
2022/06/06 06:46:19;;;;;;;11.52;6.57;;;;;;;21.15;80.94;99144.78;5028399;28;20515;-72
2022/06/06 06:48:47;;;;;;;8.90;6.57;;;;;;;21.07;80.50;99153.78;5028590;28;20033;-72
2022/06/06 06:51:42;;;;;;;18.48;7.03;;;;;;;21.08;81.43;99147.66;5026799;28;20041;-71
2022/06/06 06:54:25;;;;;;;13.50;6.88;;;;;;;21.14;82.12;99154.53;5007032;28;20046;-71
2022/06/06 06:57:11;;;;;;;11.82;6.95;;;;;;;21.14;81.34;99151.69;5028113;28;20420;-70
2022/06/06 07:00:14;;;;;;;13.40;7.43;;;;;;;21.24;82.65;99152.84;5021568;28;20044;-72
2022/06/06 07:09:23;;;;;;;16.55;7.40;;;;;;;21.72;81.47;99150.50;5026427;28;20044;-73
2022/06/06 07:12:10;;;;;;;15.05;8.30;;;;;;;21.91;79.81;99157.66;5031040;28;20115;-70
2022/06/06 07:15:13;;;;;;;14.93;8.20;;;;;;;22.05;78.58;99159.56;5031705;28;20040;-71
2022/06/06 07:17:45;;;;;;;11.20;7.18;;;;;;;22.18;77.91;99159.03;5027931;28;20553;-71
2022/06/06 07:20:14;;;;;;;16.05;6.55;;;;;;;22.34;77.88;99164.16;5030869;28;20049;-71
2022/06/06 07:22:59;;;;;;;12.50;6.93;;;;;;;22.35;78.01;99171.47;5028468;28;20029;-74
2022/06/06 07:25:27;;;;;;;8.65;6.47;;;;;;;22.41;76.77;99175.47;5030906;28;20029;-71
2022/06/06 07:27:53;;;;;;;17.88;7.53;;;;;;;22.59;75.79;99169.59;5030993;28;20029;-74
2022/06/06 07:30:21;;;;;;;12.23;6.97;;;;;;;22.73;76.48;99185.72;5029707;28;20021;-74
2022/06/06 07:33:18;;;;;;;16.02;8.43;;;;;;;22.85;74.94;99195.75;5030524;28;20558;-72
2022/06/06 07:36:17;;;;;;;19.17;7.75;;;;;;;22.86;74.91;99223.03;5030674;28;20055;-71
2022/06/06 07:39:30;;;;;;;15.48;8.90;;;;;;;22.79;77.70;99237.38;5019583;28;20033;-71
2022/06/06 07:42:05;;;;;;;11.90;7.40;;;;;;;22.78;77.19;99273.63;4941766;28;20574;-72
2022/06/06 07:44:48;;;;;;;15.50;8.48;;;;;;;22.82;77.62;99288.66;4928852;29;20967;-72
2022/06/06 07:47:55;;;;;;;15.52;7.78;;;;;;;22.56;78.15;99279.56;4987133;28;20060;-72
2022/06/06 07:50:25;;;;;;;17.05;7.15;;;;;;;22.58;77.50;99227.81;5024450;28;20508;-71
2022/06/06 07:53:10;;;;;;;14.40;6.68;;;;;;;22.30;77.38;99187.78;5030277;28;20035;-72
2022/06/06 07:55:48;;;;;;;13.23;6.82;;;;;;;22.24;77.36;99180.94;5029780;28;20041;-73
2022/06/06 07:58:55;;;;;;;13.38;7.93;;;;;;;21.96;81.07;99171.44;5027921;28;20083;-72
2022/06/06 08:01:21;;;;;;;12.07;5.95;;;;;;;22.30;79.14;99193.47;5019696;28;20033;-70
2022/06/06 08:03:58;;;;;;;10.43;6.13;;;;;;;22.63;77.42;99198.88;5028165;28;20108;-71
2022/06/06 08:06:44;;;;;;;23.85;7.88;;;;;;;22.81;76.25;99201.53;5029046;28;20037;-71
2022/06/06 08:09:47;;;;;;;15.88;7.53;;;;;;;22.98;73.91;99190.31;5029750;28;20034;-72
2022/06/06 08:12:26;;;;;;;13.27;7.20;;;;;;;23.21;75.29;99189.56;5030045;28;20033;-71
2022/06/06 08:15:07;;;;;;;13.35;5.82;;;;;;;23.53;72.98;99190.38;5009749;28;20030;-72
2022/06/06 08:17:39;;;;;;;12.55;5.80;;;;;;;23.78;69.78;99200.63;5006834;28;20505;-71
2022/06/06 08:20:46;;;;;;;13.82;6.20;;;;;;;23.96;71.05;99188.91;5025959;28;20021;-73
2022/06/06 08:23:13;;;;;;;14.40;4.97;;;;;;;24.07;68.00;99197.31;4985324;28;20504;-72
2022/06/06 08:25:42;;;;;;;9.65;5.18;;;;;;;23.97;67.10;99207.66;5029859;28;20543;-73
2022/06/06 08:28:10;;;;;;;20.83;7.25;;;;;;;23.86;66.78;99216.38;5028478;28;20148;-71
2022/06/06 08:30:39;;;;;;;18.88;5.68;;;;;;;23.67;68.10;99235.03;5028467;28;20029;-73
2022/06/06 08:33:04;;;;;;;45.35;12.80;;;;;;;23.82;72.45;99256.41;5027873;28;20025;-69
2022/06/06 08:36:07;;;;;;;31.77;8.82;;;;;;;23.08;74.96;99314.03;5026874;28;20103;-71
2022/06/06 08:38:46;;;;;;;49.08;13.23;;;;;;;23.21;79.81;99311.44;4985777;28;20425;-69
2022/06/06 08:41:30;;;;;;;24.92;9.15;;;;;;;23.25;76.94;99260.84;5025970;28;20017;-70
2022/06/06 08:44:01;;;;;;;29.42;9.32;;;;;;;22.90;79.30;99254.34;5032342;28;20108;-71
2022/06/06 08:47:08;;;;;;;13.93;6.88;;;;;;;22.00;82.04;99245.41;5014462;28;20025;-70
2022/06/06 08:52:45;;;;;;;14.68;6.50;;;;;;;22.41;75.72;99198.25;5016196;28;20029;-71
2022/06/06 08:55:46;;;;;;;14.27;5.57;;;;;;;21.92;78.13;99167.81;5031725;28;20100;-72
2022/06/06 08:58:20;;;;;;;15.52;6.47;;;;;;;21.70;82.39;99176.50;5028791;28;20030;-72
2022/06/06 09:01:26;;;;;;;14.77;5.45;;;;;;;21.65;81.46;99188.31;5023091;28;20025;-72
2022/06/06 09:04:13;;;;;;;15.05;5.40;;;;;;;21.49;81.96;99171.78;5032088;28;20021;-73
2022/06/06 09:07:20;;;;;;;9.15;5.05;;;;;;;21.56;79.49;99168.06;5017679;28;20032;-72
2022/06/06 09:09:54;;;;;;;11.30;4.60;;;;;;;21.76;79.10;99187.47;5023507;28;20034;-73
2022/06/06 09:12:47;;;;;;;12.63;4.47;;;;;;;21.98;78.00;99205.16;5029483;28;20650;-72
2022/06/06 09:15:24;;;;;;;12.90;5.10;;;;;;;22.35;76.00;99229.25;5032242;28;20025;-73
2022/06/06 09:18:37;;;;;;;12.32;4.07;;;;;;;22.54;76.71;99239.25;5032038;28;20104;-72
2022/06/06 09:21:12;;;;;;;9.38;3.72;;;;;;;22.89;77.10;99241.31;5030827;28;20026;-71
2022/06/06 09:23:56;;;;;;;9.68;3.95;;;;;;;22.96;75.71;99221.28;5031820;28;20036;-72
2022/06/06 09:26:24;;;;;;;20.38;5.20;;;;;;;23.03;76.06;99204.06;5027822;28;20026;-71
2022/06/06 09:29:11;;;;;;;10.07;4.45;;;;;;;23.11;74.88;99202.75;5025105;28;20029;-72
2022/06/06 09:32:13;;;;;;;17.42;5.13;;;;;;;23.23;73.76;99206.28;5026904;28;20684;-73
2022/06/06 09:34:59;;;;;;;12.07;4.90;;;;;;;23.45;71.76;99195.38;4986134;28;20042;-73
2022/06/06 09:37:55;;;;;;;8.85;4.25;;;;;;;23.62;72.60;99173.53;5016940;28;20405;-75
2022/06/06 09:40:47;;;;;;;9.60;3.75;;;;;;;23.67;69.87;99169.38;5026618;28;20051;-72
2022/06/06 09:43:32;;;;;;;9.57;4.13;;;;;;;23.80;68.33;99198.91;4977321;28;20479;-73
2022/06/06 09:46:27;;;;;;;14.27;4.38;;;;;;;23.20;74.70;99235.66;5022925;28;20037;-73
2022/06/06 09:49:11;;;;;;;9.25;4.82;;;;;;;22.98;75.67;99256.69;5025066;28;20122;-72
2022/06/06 09:52:01;;;;;;;6.72;3.60;;;;;;;22.72;73.29;99266.78;5013897;28;20097;-73
2022/06/06 10:01:14;;;;;;;16.88;8.15;;;;;;;22.05;80.52;99281.19;5020546;28;20040;-72
2022/06/06 10:03:58;;;;;;;18.58;11.40;;;;;;;22.09;83.06;99260.00;5026383;28;20519;-72
2022/06/06 10:06:45;;;;;;;21.88;10.00;;;;;;;22.25;81.85;99187.41;5028792;28;20034;-72
2022/06/06 10:09:28;;;;;;;16.92;6.90;;;;;;;21.88;83.12;99093.81;5017740;28;20037;-72
2022/06/06 10:12:30;;;;;;;11.73;7.00;;;;;;;21.65;85.80;99119.22;5026780;28;20033;-72
2022/06/06 10:15:29;;;;;;;11.43;5.57;;;;;;;21.85;81.64;99157.28;5025839;28;20018;-72
2022/06/06 10:18:22;;;;;;;13.70;5.97;;;;;;;21.29;82.72;99243.41;5027091;28;20420;-72
2022/06/06 10:21:09;;;;;;;10.40;5.90;;;;;;;20.88;81.30;99290.28;5016938;28;20041;-72
2022/06/06 10:23:44;;;;;;;8.95;5.10;;;;;;;20.70;80.77;99304.50;5024375;28;20017;-72
2022/06/06 10:26:34;;;;;;;11.88;5.18;;;;;;;20.69;81.80;99311.38;5025283;28;20475;-72
2022/06/06 10:29:24;;;;;;;11.57;4.95;;;;;;;20.36;82.23;99299.25;5025078;28;20037;-71
2022/06/06 10:32:22;;;;;;;14.18;7.72;;;;;;;20.24;83.98;99306.16;5026492;28;20021;-72
2022/06/06 10:35:08;;;;;;;20.25;5.68;;;;;;;20.34;85.07;99318.75;5024504;28;20519;-71
2022/06/06 10:37:37;;;;;;;14.25;5.32;;;;;;;20.24;86.16;99328.06;5028501;28;20061;-72
2022/06/06 10:40:05;;;;;;;15.70;11.68;;;;;;;20.12;86.86;99327.25;5030798;28;20438;-72
2022/06/06 10:43:02;;;;;;;16.17;7.97;;;;;;;19.95;89.86;99308.97;5027405;28;20155;-71
2022/06/06 10:46:10;;;;;;;11.43;7.88;;;;;;;20.12;90.08;99306.53;5020091;28;20055;-72
2022/06/06 10:48:58;;;;;;;18.08;8.25;;;;;;;20.42;90.02;99305.34;5029161;28;20384;-72
2022/06/06 10:51:41;;;;;;;17.38;8.88;;;;;;;20.79;88.06;99315.44;5029722;28;20694;-72
2022/06/06 10:54:25;;;;;;;12.07;7.28;;;;;;;20.90;86.74;99313.44;5021947;28;20492;-72
2022/06/06 10:57:17;;;;;;;16.98;7.05;;;;;;;21.05;85.74;99319.06;5030558;28;20518;-72
2022/06/06 11:00:11;;;;;;;23.38;15.98;;;;;;;20.29;83.15;99319.13;5041239;28;20092;-71
2022/06/06 11:02:55;;;;;;;19.55;10.32;;;;;;;20.12;82.32;99317.91;5038526;28;20086;-72
2022/06/06 11:05:21;;;;;;;13.48;6.80;;;;;;;19.74;83.51;99310.50;5022961;28;20033;-71
2022/06/06 11:08:04;;;;;;;12.95;7.70;;;;;;;19.95;81.90;99272.06;5032847;28;20026;-71
2022/06/06 11:10:36;;;;;;;8.82;4.53;;;;;;;20.23;79.44;99233.53;5021111;28;20033;-72
2022/06/06 11:13:13;;;;;;;7.82;3.22;;;;;;;20.33;80.30;99246.91;5031840;28;20489;-72
2022/06/06 11:15:46;;;;;;;5.53;2.28;;;;;;;20.78;77.96;99242.78;5031240;28;20595;-71
2022/06/06 11:18:11;;;;;;;7.68;2.78;;;;;;;20.90;76.96;99247.22;5026837;28;20092;-71
2022/06/06 11:20:46;;;;;;;4.50;2.05;;;;;;;20.59;77.61;99264.72;5033739;28;20108;-71
2022/06/06 11:23:24;;;;;;;4.60;2.35;;;;;;;20.41;78.12;99264.75;5024292;28;20055;-73
2022/06/06 11:26:14;;;;;;;9.32;3.20;;;;;;;20.47;78.01;99270.84;5030740;28;20125;-72
2022/06/06 11:28:59;;;;;;;10.10;3.35;;;;;;;20.89;77.44;99263.47;5029070;28;20451;-73
2022/06/06 11:31:36;;;;;;;4.32;2.92;;;;;;;21.17;76.93;99258.91;5029841;28;20038;-72
2022/06/06 11:34:27;;;;;;;4.40;2.83;;;;;;;21.29;75.17;99251.94;5028980;28;20560;-73
2022/06/06 11:37:11;;;;;;;8.07;2.53;;;;;;;21.53;73.45;99237.19;5026925;28;20045;-73
2022/06/06 11:40:10;;;;;;;5.55;2.85;;;;;;;21.70;74.14;99239.13;5026439;28;20036;-73
2022/06/06 11:42:54;;;;;;;4.00;2.40;;;;;;;21.40;74.46;99223.44;5020633;28;20370;-73
2022/06/06 11:46:14;;;;;;;4.90;2.08;;;;;;;21.32;74.35;99216.16;5031804;28;20033;-72
2022/06/06 11:49:01;;;;;;;3.67;1.92;;;;;;;21.23;76.08;99216.63;4992542;28;20520;-72
2022/06/06 11:52:00;;;;;;;4.75;2.10;;;;;;;21.32;75.93;99201.94;5029896;28;20065;-72
2022/06/06 11:54:50;;;;;;;3.33;1.85;;;;;;;21.47;73.36;99202.69;5032484;28;20034;-72
2022/06/06 11:57:53;;;;;;;5.28;1.40;;;;;;;21.58;72.85;99188.38;5029992;28;20040;-74
2022/06/06 12:00:50;;;;;;;4.50;1.45;;;;;;;21.84;72.28;99198.38;5025919;28;20444;-73
2022/06/06 12:03:46;;;;;;;5.00;1.60;;;;;;;21.76;70.88;99202.50;5028656;28;20108;-73
2022/06/06 12:06:35;;;;;;;4.00;1.20;;;;;;;21.65;70.99;99205.41;5032665;28;20390;-73
2022/06/06 12:09:30;;;;;;;3.00;1.45;;;;;;;21.68;72.30;99212.31;5024012;28;20109;-73
2022/06/06 12:12:22;;;;;;;5.47;1.90;;;;;;;21.69;71.38;99213.94;5032504;28;20045;-72
2022/06/06 12:15:26;;;;;;;2.25;1.85;;;;;;;21.96;73.15;99219.84;5028378;28;20045;-72
2022/06/06 12:18:00;;;;;;;3.65;1.75;;;;;;;22.07;72.48;99225.44;5022164;28;20672;-72
2022/06/06 12:20:41;;;;;;;14.05;1.80;;;;;;;22.16;72.81;99240.00;5031354;28;20550;-72
2022/06/06 12:23:06;;;;;;;5.38;1.65;;;;;;;22.36;71.57;99247.16;5035152;28;20041;-73
2022/06/06 12:25:34;;;;;;;7.70;2.42;;;;;;;22.25;70.27;99228.13;5031482;28;20033;-71
2022/06/06 12:28:20;;;;;;;4.80;1.83;;;;;;;22.36;70.62;99239.41;5023291;28;20495;-71
2022/06/06 12:31:13;;;;;;;2.83;1.33;;;;;;;22.36;70.69;99222.31;5032237;28;20434;-73
2022/06/06 12:33:38;;;;;;;10.40;1.90;;;;;;;22.49;68.14;99216.94;5032235;28;20029;-72
2022/06/06 12:36:14;;;;;;;5.25;2.25;;;;;;;22.62;69.35;99219.25;5031352;28;20133;-72
2022/06/06 12:39:00;;;;;;;14.57;2.10;;;;;;;22.92;67.81;99217.66;5030268;28;20029;-72
2022/06/06 12:41:44;;;;;;;11.45;2.63;;;;;;;23.08;68.33;99212.19;5028270;28;20051;-71
2022/06/06 12:44:10;;;;;;;13.10;2.90;;;;;;;23.23;64.86;99212.81;5030873;28;20463;-73
2022/06/06 12:46:51;;;;;;;19.80;3.58;;;;;;;22.97;65.49;99200.88;5024658;28;20036;-72
2022/06/06 12:49:35;;;;;;;15.43;4.30;;;;;;;23.22;62.95;99204.66;5022032;28;20033;-72
2022/06/06 12:52:25;;;;;;;12.02;4.22;;;;;;;22.99;61.04;99203.31;5030209;28;20116;-73